sensor_id;sensor_type;location;lat;lon;timestamp;P1;durP1;ratioP1;P2;durP2;ratioP2
5379;SDS011;2713;42.680;23.310;2024-03-17T00:01:54;29.77;;;21.03;;
5379;SDS011;2713;42.680;23.310;2024-03-17T00:04:19;28.03;;;19.83;;
5379;SDS011;2713;42.680;23.310;2024-03-17T00:06:46;34.10;;;21.47;;
5379;SDS011;2713;42.680;23.310;2024-03-17T00:09:12;35.50;;;20.30;;
5379;SDS011;2713;42.680;23.310;2024-03-17T00:11:41;31.57;;;20.73;;
5379;SDS011;2713;42.680;23.310;2024-03-17T00:14:07;33.47;;;20.73;;
5379;SDS011;2713;42.680;23.310;2024-03-17T00:16:35;27.40;;;18.63;;
5379;SDS011;2713;42.680;23.310;2024-03-17T00:19:01;28.27;;;19.60;;
5379;SDS011;2713;42.680;23.310;2024-03-17T00:21:28;29.33;;;21.17;;
5379;SDS011;2713;42.680;23.310;2024-03-17T00:23:54;30.43;;;20.40;;
5379;SDS011;2713;42.680;23.310;2024-03-17T00:26:22;27.57;;;19.43;;
5379;SDS011;2713;42.680;23.310;2024-03-17T00:28:48;28.57;;;18.97;;
5379;SDS011;2713;42.680;23.310;2024-03-17T00:31:16;27.50;;;19.63;;
5379;SDS011;2713;42.680;23.310;2024-03-17T00:33:44;26.87;;;19.50;;
5379;SDS011;2713;42.680;23.310;2024-03-17T00:36:11;30.10;;;19.83;;
5379;SDS011;2713;42.680;23.310;2024-03-17T00:38:37;28.87;;;19.43;;
5379;SDS011;2713;42.680;23.310;2024-03-17T00:41:04;29.70;;;20.50;;
5379;SDS011;2713;42.680;23.310;2024-03-17T00:43:31;27.57;;;18.90;;
5379;SDS011;2713;42.680;23.310;2024-03-17T00:45:58;25.80;;;19.40;;
5379;SDS011;2713;42.680;23.310;2024-03-17T00:48:24;29.67;;;19.70;;
5379;SDS011;2713;42.680;23.310;2024-03-17T00:50:55;27.10;;;19.27;;
5379;SDS011;2713;42.680;23.310;2024-03-17T00:53:21;29.43;;;20.17;;
5379;SDS011;2713;42.680;23.310;2024-03-17T00:55:51;25.90;;;18.60;;
5379;SDS011;2713;42.680;23.310;2024-03-17T00:58:18;27.17;;;18.73;;
5379;SDS011;2713;42.680;23.310;2024-03-17T01:00:45;28.40;;;19.57;;
5379;SDS011;2713;42.680;23.310;2024-03-17T01:03:13;28.47;;;17.80;;
5379;SDS011;2713;42.680;23.310;2024-03-17T01:05:39;26.93;;;18.50;;
5379;SDS011;2713;42.680;23.310;2024-03-17T01:08:09;24.97;;;18.30;;
5379;SDS011;2713;42.680;23.310;2024-03-17T01:10:39;25.20;;;16.93;;
5379;SDS011;2713;42.680;23.310;2024-03-17T01:13:05;27.30;;;18.77;;
5379;SDS011;2713;42.680;23.310;2024-03-17T01:15:33;23.60;;;17.13;;
5379;SDS011;2713;42.680;23.310;2024-03-17T01:17:59;26.70;;;17.73;;
5379;SDS011;2713;42.680;23.310;2024-03-17T01:20:26;27.77;;;17.23;;
5379;SDS011;2713;42.680;23.310;2024-03-17T01:22:52;25.20;;;17.73;;
5379;SDS011;2713;42.680;23.310;2024-03-17T01:25:20;22.90;;;16.17;;
5379;SDS011;2713;42.680;23.310;2024-03-17T01:27:46;27.20;;;18.00;;
5379;SDS011;2713;42.680;23.310;2024-03-17T01:30:13;23.30;;;16.90;;
5379;SDS011;2713;42.680;23.310;2024-03-17T01:32:39;23.80;;;17.10;;
5379;SDS011;2713;42.680;23.310;2024-03-17T01:35:06;22.50;;;16.40;;
5379;SDS011;2713;42.680;23.310;2024-03-17T01:37:33;22.10;;;17.47;;
5379;SDS011;2713;42.680;23.310;2024-03-17T01:39:59;22.80;;;16.40;;
5379;SDS011;2713;42.680;23.310;2024-03-17T01:42:27;27.23;;;17.03;;
5379;SDS011;2713;42.680;23.310;2024-03-17T01:44:55;23.77;;;16.50;;
5379;SDS011;2713;42.680;23.310;2024-03-17T01:47:20;20.70;;;15.20;;
5379;SDS011;2713;42.680;23.310;2024-03-17T01:49:47;21.80;;;15.70;;
5379;SDS011;2713;42.680;23.310;2024-03-17T01:52:15;23.10;;;16.50;;
5379;SDS011;2713;42.680;23.310;2024-03-17T01:54:43;20.90;;;15.73;;
5379;SDS011;2713;42.680;23.310;2024-03-17T01:57:09;25.70;;;16.60;;
5379;SDS011;2713;42.680;23.310;2024-03-17T01:59:38;22.83;;;15.73;;
5379;SDS011;2713;42.680;23.310;2024-03-17T02:02:04;22.90;;;16.67;;
5379;SDS011;2713;42.680;23.310;2024-03-17T02:04:31;21.30;;;15.47;;
5379;SDS011;2713;42.680;23.310;2024-03-17T02:06:57;22.77;;;16.03;;
5379;SDS011;2713;42.680;23.310;2024-03-17T02:09:24;24.50;;;15.77;;
5379;SDS011;2713;42.680;23.310;2024-03-17T02:11:50;23.10;;;15.40;;
5379;SDS011;2713;42.680;23.310;2024-03-17T02:14:17;22.27;;;15.50;;
5379;SDS011;2713;42.680;23.310;2024-03-17T02:16:44;24.03;;;15.87;;
5379;SDS011;2713;42.680;23.310;2024-03-17T02:19:11;22.47;;;15.23;;
5379;SDS011;2713;42.680;23.310;2024-03-17T02:21:37;21.30;;;15.30;;
5379;SDS011;2713;42.680;23.310;2024-03-17T02:24:05;21.40;;;15.43;;
5379;SDS011;2713;42.680;23.310;2024-03-17T02:26:33;19.50;;;15.00;;
5379;SDS011;2713;42.680;23.310;2024-03-17T02:29:00;22.63;;;15.27;;
5379;SDS011;2713;42.680;23.310;2024-03-17T02:34:15;20.63;;;15.50;;
5379;SDS011;2713;42.680;23.310;2024-03-17T02:36:42;22.50;;;15.60;;
5379;SDS011;2713;42.680;23.310;2024-03-17T02:39:09;21.70;;;15.63;;
5379;SDS011;2713;42.680;23.310;2024-03-17T02:41:53;21.80;;;15.47;;
5379;SDS011;2713;42.680;23.310;2024-03-17T02:44:20;23.40;;;16.07;;
5379;SDS011;2713;42.680;23.310;2024-03-17T02:46:47;25.93;;;16.50;;
5379;SDS011;2713;42.680;23.310;2024-03-17T02:49:14;23.23;;;15.73;;
5379;SDS011;2713;42.680;23.310;2024-03-17T02:51:43;22.73;;;15.43;;
5379;SDS011;2713;42.680;23.310;2024-03-17T02:54:11;23.80;;;15.63;;
5379;SDS011;2713;42.680;23.310;2024-03-17T02:56:38;23.13;;;15.67;;
5379;SDS011;2713;42.680;23.310;2024-03-17T02:59:05;21.83;;;14.90;;
5379;SDS011;2713;42.680;23.310;2024-03-17T03:01:32;22.37;;;15.40;;
5379;SDS011;2713;42.680;23.310;2024-03-17T03:03:59;21.97;;;15.70;;
5379;SDS011;2713;42.680;23.310;2024-03-17T03:06:26;23.60;;;15.57;;
5379;SDS011;2713;42.680;23.310;2024-03-17T03:08:53;23.03;;;16.20;;
5379;SDS011;2713;42.680;23.310;2024-03-17T03:11:21;26.80;;;16.50;;
5379;SDS011;2713;42.680;23.310;2024-03-17T03:13:48;23.53;;;15.60;;
5379;SDS011;2713;42.680;23.310;2024-03-17T03:16:15;24.20;;;15.57;;
5379;SDS011;2713;42.680;23.310;2024-03-17T03:18:43;24.47;;;16.47;;
5379;SDS011;2713;42.680;23.310;2024-03-17T03:21:10;23.90;;;15.10;;
5379;SDS011;2713;42.680;23.310;2024-03-17T03:23:38;23.90;;;16.67;;
5379;SDS011;2713;42.680;23.310;2024-03-17T03:26:05;23.60;;;15.83;;
5379;SDS011;2713;42.680;23.310;2024-03-17T03:28:35;22.77;;;16.00;;
5379;SDS011;2713;42.680;23.310;2024-03-17T03:31:02;23.83;;;15.57;;
5379;SDS011;2713;42.680;23.310;2024-03-17T03:33:29;25.47;;;16.33;;
5379;SDS011;2713;42.680;23.310;2024-03-17T03:35:56;25.57;;;16.20;;
5379;SDS011;2713;42.680;23.310;2024-03-17T03:38:23;24.50;;;15.87;;
5379;SDS011;2713;42.680;23.310;2024-03-17T03:40:50;24.23;;;16.17;;
5379;SDS011;2713;42.680;23.310;2024-03-17T03:43:17;24.70;;;16.50;;
5379;SDS011;2713;42.680;23.310;2024-03-17T03:45:46;25.17;;;16.27;;
5379;SDS011;2713;42.680;23.310;2024-03-17T03:48:12;21.27;;;15.27;;
5379;SDS011;2713;42.680;23.310;2024-03-17T03:50:39;22.50;;;15.10;;
5379;SDS011;2713;42.680;23.310;2024-03-17T03:53:06;21.67;;;15.47;;
5379;SDS011;2713;42.680;23.310;2024-03-17T03:55:33;23.80;;;15.60;;
5379;SDS011;2713;42.680;23.310;2024-03-17T03:58:00;24.00;;;15.30;;
5379;SDS011;2713;42.680;23.310;2024-03-17T04:00:28;22.23;;;16.13;;
5379;SDS011;2713;42.680;23.310;2024-03-17T04:02:58;26.83;;;15.90;;
5379;SDS011;2713;42.680;23.310;2024-03-17T04:05:27;20.03;;;16.10;;
5379;SDS011;2713;42.680;23.310;2024-03-17T04:07:53;22.03;;;15.20;;
5379;SDS011;2713;42.680;23.310;2024-03-17T04:10:20;21.90;;;15.20;;
5379;SDS011;2713;42.680;23.310;2024-03-17T04:12:48;21.27;;;15.00;;
5379;SDS011;2713;42.680;23.310;2024-03-17T04:15:15;23.53;;;16.20;;
5379;SDS011;2713;42.680;23.310;2024-03-17T04:17:42;26.77;;;17.27;;
5379;SDS011;2713;42.680;23.310;2024-03-17T04:20:10;25.13;;;16.60;;
5379;SDS011;2713;42.680;23.310;2024-03-17T04:22:38;21.20;;;16.23;;
5379;SDS011;2713;42.680;23.310;2024-03-17T04:25:05;21.70;;;14.70;;
5379;SDS011;2713;42.680;23.310;2024-03-17T04:27:34;21.30;;;14.70;;
5379;SDS011;2713;42.680;23.310;2024-03-17T04:30:01;23.37;;;16.27;;
5379;SDS011;2713;42.680;23.310;2024-03-17T04:32:31;21.77;;;16.97;;
5379;SDS011;2713;42.680;23.310;2024-03-17T04:34:57;27.30;;;16.10;;
5379;SDS011;2713;42.680;23.310;2024-03-17T04:37:25;24.10;;;16.90;;
5379;SDS011;2713;42.680;23.310;2024-03-17T04:39:53;23.10;;;15.97;;
5379;SDS011;2713;42.680;23.310;2024-03-17T04:42:22;24.37;;;16.70;;
5379;SDS011;2713;42.680;23.310;2024-03-17T04:44:49;23.90;;;16.30;;
5379;SDS011;2713;42.680;23.310;2024-03-17T04:47:16;22.00;;;15.73;;
5379;SDS011;2713;42.680;23.310;2024-03-17T04:49:43;25.10;;;16.67;;
5379;SDS011;2713;42.680;23.310;2024-03-17T04:52:11;24.23;;;16.17;;
5379;SDS011;2713;42.680;23.310;2024-03-17T04:54:40;22.53;;;15.77;;
5379;SDS011;2713;42.680;23.310;2024-03-17T04:57:08;22.30;;;16.23;;
5379;SDS011;2713;42.680;23.310;2024-03-17T04:59:35;24.00;;;16.17;;
5379;SDS011;2713;42.680;23.310;2024-03-17T05:02:03;21.63;;;15.93;;
5379;SDS011;2713;42.680;23.310;2024-03-17T05:04:30;23.90;;;16.03;;
5379;SDS011;2713;42.680;23.310;2024-03-17T05:06:57;25.33;;;16.00;;
5379;SDS011;2713;42.680;23.310;2024-03-17T05:09:24;25.90;;;16.73;;
5379;SDS011;2713;42.680;23.310;2024-03-17T05:11:52;26.67;;;16.40;;
5379;SDS011;2713;42.680;23.310;2024-03-17T05:14:19;24.33;;;16.50;;
5379;SDS011;2713;42.680;23.310;2024-03-17T05:16:47;21.03;;;15.90;;
5379;SDS011;2713;42.680;23.310;2024-03-17T05:19:15;25.23;;;17.30;;
5379;SDS011;2713;42.680;23.310;2024-03-17T05:21:42;25.50;;;17.00;;
5379;SDS011;2713;42.680;23.310;2024-03-17T05:24:10;25.20;;;17.13;;
5379;SDS011;2713;42.680;23.310;2024-03-17T05:26:37;34.13;;;18.47;;
5379;SDS011;2713;42.680;23.310;2024-03-17T05:29:05;31.30;;;19.40;;
5379;SDS011;2713;42.680;23.310;2024-03-17T05:31:32;23.33;;;16.97;;
5379;SDS011;2713;42.680;23.310;2024-03-17T05:33:59;28.83;;;17.03;;
5379;SDS011;2713;42.680;23.310;2024-03-17T05:36:26;25.60;;;18.30;;
5379;SDS011;2713;42.680;23.310;2024-03-17T05:38:57;28.77;;;18.80;;
5379;SDS011;2713;42.680;23.310;2024-03-17T05:41:24;26.43;;;17.70;;
5379;SDS011;2713;42.680;23.310;2024-03-17T05:43:53;27.10;;;18.43;;
5379;SDS011;2713;42.680;23.310;2024-03-17T05:46:24;24.40;;;17.47;;
5379;SDS011;2713;42.680;23.310;2024-03-17T05:48:53;25.03;;;18.10;;
5379;SDS011;2713;42.680;23.310;2024-03-17T05:51:19;27.00;;;18.27;;
5379;SDS011;2713;42.680;23.310;2024-03-17T05:53:46;22.90;;;17.33;;
5379;SDS011;2713;42.680;23.310;2024-03-17T05:56:14;24.00;;;17.23;;
5379;SDS011;2713;42.680;23.310;2024-03-17T05:58:42;27.80;;;17.70;;
5379;SDS011;2713;42.680;23.310;2024-03-17T06:01:09;28.40;;;17.80;;
5379;SDS011;2713;42.680;23.310;2024-03-17T06:03:37;27.77;;;17.93;;
5379;SDS011;2713;42.680;23.310;2024-03-17T06:06:05;24.27;;;17.33;;
5379;SDS011;2713;42.680;23.310;2024-03-17T06:08:35;27.03;;;18.17;;
5379;SDS011;2713;42.680;23.310;2024-03-17T06:11:02;26.07;;;18.10;;
5379;SDS011;2713;42.680;23.310;2024-03-17T06:13:29;24.67;;;18.17;;
5379;SDS011;2713;42.680;23.310;2024-03-17T06:15:56;23.23;;;18.00;;
5379;SDS011;2713;42.680;23.310;2024-03-17T06:18:26;29.47;;;18.17;;
5379;SDS011;2713;42.680;23.310;2024-03-17T06:20:55;29.50;;;17.40;;
5379;SDS011;2713;42.680;23.310;2024-03-17T06:23:23;29.47;;;18.13;;
5379;SDS011;2713;42.680;23.310;2024-03-17T06:25:52;25.30;;;17.10;;
5379;SDS011;2713;42.680;23.310;2024-03-17T06:28:20;25.83;;;16.80;;
5379;SDS011;2713;42.680;23.310;2024-03-17T06:30:54;27.17;;;17.23;;
5379;SDS011;2713;42.680;23.310;2024-03-17T06:33:24;22.30;;;16.30;;
5379;SDS011;2713;42.680;23.310;2024-03-17T06:35:54;23.93;;;16.87;;
5379;SDS011;2713;42.680;23.310;2024-03-17T06:38:22;26.33;;;17.33;;
5379;SDS011;2713;42.680;23.310;2024-03-17T06:40:49;25.30;;;17.80;;
5379;SDS011;2713;42.680;23.310;2024-03-17T06:43:17;25.73;;;17.00;;
5379;SDS011;2713;42.680;23.310;2024-03-17T06:45:53;24.57;;;17.23;;
5379;SDS011;2713;42.680;23.310;2024-03-17T06:48:20;25.70;;;16.80;;
5379;SDS011;2713;42.680;23.310;2024-03-17T06:50:47;26.70;;;19.23;;
5379;SDS011;2713;42.680;23.310;2024-03-17T06:53:15;28.50;;;18.03;;
5379;SDS011;2713;42.680;23.310;2024-03-17T06:55:42;26.77;;;18.40;;
5379;SDS011;2713;42.680;23.310;2024-03-17T06:58:11;26.73;;;17.30;;
5379;SDS011;2713;42.680;23.310;2024-03-17T07:00:38;27.47;;;18.07;;
5379;SDS011;2713;42.680;23.310;2024-03-17T07:03:05;27.40;;;17.67;;
5379;SDS011;2713;42.680;23.310;2024-03-17T07:05:32;27.43;;;16.97;;
5379;SDS011;2713;42.680;23.310;2024-03-17T07:07:59;23.50;;;17.43;;
5379;SDS011;2713;42.680;23.310;2024-03-17T07:10:27;23.80;;;17.87;;
5379;SDS011;2713;42.680;23.310;2024-03-17T07:12:54;24.07;;;17.80;;
5379;SDS011;2713;42.680;23.310;2024-03-17T07:15:22;27.03;;;18.27;;
5379;SDS011;2713;42.680;23.310;2024-03-17T07:17:49;24.97;;;18.07;;
5379;SDS011;2713;42.680;23.310;2024-03-17T07:20:16;27.77;;;19.23;;
5379;SDS011;2713;42.680;23.310;2024-03-17T07:22:43;25.87;;;17.60;;
5379;SDS011;2713;42.680;23.310;2024-03-17T07:25:10;28.77;;;18.00;;
5379;SDS011;2713;42.680;23.310;2024-03-17T07:27:39;23.73;;;17.57;;
5379;SDS011;2713;42.680;23.310;2024-03-17T07:30:06;28.53;;;17.80;;
5379;SDS011;2713;42.680;23.310;2024-03-17T07:32:34;26.97;;;18.37;;
5379;SDS011;2713;42.680;23.310;2024-03-17T07:35:01;25.47;;;17.80;;
5379;SDS011;2713;42.680;23.310;2024-03-17T07:37:29;27.43;;;18.10;;
5379;SDS011;2713;42.680;23.310;2024-03-17T07:39:56;24.27;;;17.13;;
5379;SDS011;2713;42.680;23.310;2024-03-17T07:42:26;25.00;;;17.03;;
5379;SDS011;2713;42.680;23.310;2024-03-17T07:44:54;22.50;;;15.60;;
5379;SDS011;2713;42.680;23.310;2024-03-17T07:47:21;24.57;;;15.60;;
5379;SDS011;2713;42.680;23.310;2024-03-17T07:49:47;26.80;;;16.83;;
5379;SDS011;2713;42.680;23.310;2024-03-17T07:52:14;20.40;;;15.13;;
5379;SDS011;2713;42.680;23.310;2024-03-17T07:54:41;22.33;;;15.63;;
5379;SDS011;2713;42.680;23.310;2024-03-17T07:57:08;20.60;;;14.80;;
5379;SDS011;2713;42.680;23.310;2024-03-17T07:59:35;20.10;;;14.03;;
5379;SDS011;2713;42.680;23.310;2024-03-17T08:02:03;18.77;;;14.90;;
5379;SDS011;2713;42.680;23.310;2024-03-17T08:04:30;18.50;;;13.70;;
5379;SDS011;2713;42.680;23.310;2024-03-17T08:06:57;16.60;;;12.50;;
5379;SDS011;2713;42.680;23.310;2024-03-17T08:09:24;17.57;;;12.30;;
5379;SDS011;2713;42.680;23.310;2024-03-17T08:11:51;15.00;;;11.67;;
5379;SDS011;2713;42.680;23.310;2024-03-17T08:14:18;16.47;;;11.90;;
5379;SDS011;2713;42.680;23.310;2024-03-17T08:16:44;17.27;;;11.93;;
5379;SDS011;2713;42.680;23.310;2024-03-17T08:19:12;15.97;;;11.60;;
5379;SDS011;2713;42.680;23.310;2024-03-17T08:21:39;20.60;;;11.57;;
5379;SDS011;2713;42.680;23.310;2024-03-17T08:24:06;16.50;;;11.73;;
5379;SDS011;2713;42.680;23.310;2024-03-17T08:26:33;13.87;;;11.30;;
5379;SDS011;2713;42.680;23.310;2024-03-17T08:29:00;14.40;;;11.37;;
5379;SDS011;2713;42.680;23.310;2024-03-17T08:31:27;15.20;;;11.00;;
5379;SDS011;2713;42.680;23.310;2024-03-17T08:33:53;14.30;;;10.63;;
5379;SDS011;2713;42.680;23.310;2024-03-17T08:36:21;14.87;;;11.00;;
5379;SDS011;2713;42.680;23.310;2024-03-17T08:38:49;12.83;;;9.73;;
5379;SDS011;2713;42.680;23.310;2024-03-17T08:41:16;13.63;;;10.20;;
5379;SDS011;2713;42.680;23.310;2024-03-17T08:43:43;13.73;;;11.03;;
5379;SDS011;2713;42.680;23.310;2024-03-17T08:46:10;14.77;;;10.70;;
5379;SDS011;2713;42.680;23.310;2024-03-17T08:48:39;14.33;;;10.83;;
5379;SDS011;2713;42.680;23.310;2024-03-17T08:51:07;15.20;;;11.40;;
5379;SDS011;2713;42.680;23.310;2024-03-17T08:53:37;16.07;;;11.73;;
5379;SDS011;2713;42.680;23.310;2024-03-17T08:56:05;17.23;;;12.90;;
5379;SDS011;2713;42.680;23.310;2024-03-17T08:58:33;15.10;;;12.30;;
5379;SDS011;2713;42.680;23.310;2024-03-17T09:01:04;18.60;;;12.57;;
5379;SDS011;2713;42.680;23.310;2024-03-17T09:03:32;18.10;;;12.63;;
5379;SDS011;2713;42.680;23.310;2024-03-17T09:05:59;22.07;;;16.50;;
5379;SDS011;2713;42.680;23.310;2024-03-17T09:08:26;22.27;;;14.77;;
5379;SDS011;2713;42.680;23.310;2024-03-17T09:10:54;23.13;;;16.07;;
5379;SDS011;2713;42.680;23.310;2024-03-17T09:13:22;22.90;;;15.57;;
5379;SDS011;2713;42.680;23.310;2024-03-17T09:15:51;22.13;;;16.10;;
5379;SDS011;2713;42.680;23.310;2024-03-17T09:18:19;20.50;;;14.13;;
5379;SDS011;2713;42.680;23.310;2024-03-17T09:20:46;19.67;;;14.77;;
5379;SDS011;2713;42.680;23.310;2024-03-17T09:23:21;16.87;;;12.97;;
5379;SDS011;2713;42.680;23.310;2024-03-17T09:25:55;12.73;;;10.67;;
5379;SDS011;2713;42.680;23.310;2024-03-17T09:28:23;13.23;;;11.20;;
5379;SDS011;2713;42.680;23.310;2024-03-17T09:30:50;17.97;;;11.13;;
5379;SDS011;2713;42.680;23.310;2024-03-17T09:33:18;16.63;;;10.87;;
5379;SDS011;2713;42.680;23.310;2024-03-17T09:35:52;15.37;;;11.47;;
5379;SDS011;2713;42.680;23.310;2024-03-17T09:38:18;13.30;;;10.80;;
5379;SDS011;2713;42.680;23.310;2024-03-17T09:40:45;14.37;;;11.23;;
5379;SDS011;2713;42.680;23.310;2024-03-17T09:43:14;10.70;;;9.03;;
5379;SDS011;2713;42.680;23.310;2024-03-17T09:45:43;11.43;;;9.00;;
5379;SDS011;2713;42.680;23.310;2024-03-17T09:48:13;12.07;;;9.20;;
5379;SDS011;2713;42.680;23.310;2024-03-17T09:50:41;11.20;;;8.23;;
5379;SDS011;2713;42.680;23.310;2024-03-17T09:53:08;9.97;;;7.97;;
5379;SDS011;2713;42.680;23.310;2024-03-17T09:55:42;12.33;;;9.20;;
5379;SDS011;2713;42.680;23.310;2024-03-17T09:58:09;12.90;;;8.80;;
5379;SDS011;2713;42.680;23.310;2024-03-17T10:00:43;8.20;;;6.53;;
5379;SDS011;2713;42.680;23.310;2024-03-17T10:03:10;9.20;;;8.23;;
5379;SDS011;2713;42.680;23.310;2024-03-17T10:05:38;11.60;;;8.10;;
5379;SDS011;2713;42.680;23.310;2024-03-17T10:08:05;10.43;;;8.27;;
5379;SDS011;2713;42.680;23.310;2024-03-17T10:10:33;9.70;;;7.20;;
5379;SDS011;2713;42.680;23.310;2024-03-17T10:13:00;11.40;;;6.97;;
5379;SDS011;2713;42.680;23.310;2024-03-17T10:15:28;12.10;;;7.60;;
5379;SDS011;2713;42.680;23.310;2024-03-17T10:17:56;7.77;;;6.13;;
5379;SDS011;2713;42.680;23.310;2024-03-17T10:20:23;7.77;;;6.93;;
5379;SDS011;2713;42.680;23.310;2024-03-17T10:22:57;8.70;;;6.50;;
5379;SDS011;2713;42.680;23.310;2024-03-17T10:25:24;10.23;;;6.20;;
5379;SDS011;2713;42.680;23.310;2024-03-17T10:27:51;7.10;;;5.13;;
5379;SDS011;2713;42.680;23.310;2024-03-17T10:30:19;3.97;;;3.67;;
5379;SDS011;2713;42.680;23.310;2024-03-17T10:32:52;5.13;;;4.63;;
5379;SDS011;2713;42.680;23.310;2024-03-17T10:35:26;4.93;;;4.53;;
5379;SDS011;2713;42.680;23.310;2024-03-17T10:37:54;4.60;;;4.13;;
5379;SDS011;2713;42.680;23.310;2024-03-17T10:40:23;4.93;;;4.27;;
5379;SDS011;2713;42.680;23.310;2024-03-17T10:42:50;4.83;;;4.03;;
5379;SDS011;2713;42.680;23.310;2024-03-17T10:45:17;4.83;;;4.03;;
5379;SDS011;2713;42.680;23.310;2024-03-17T10:47:46;5.07;;;4.23;;
5379;SDS011;2713;42.680;23.310;2024-03-17T10:50:17;6.63;;;5.93;;
5379;SDS011;2713;42.680;23.310;2024-03-17T10:52:45;4.53;;;4.13;;
5379;SDS011;2713;42.680;23.310;2024-03-17T10:55:20;4.73;;;4.30;;
5379;SDS011;2713;42.680;23.310;2024-03-17T10:57:49;5.97;;;5.43;;
5379;SDS011;2713;42.680;23.310;2024-03-17T11:00:18;6.37;;;5.57;;
5379;SDS011;2713;42.680;23.310;2024-03-17T11:02:47;8.03;;;5.27;;
5379;SDS011;2713;42.680;23.310;2024-03-17T11:05:18;10.37;;;6.17;;
5379;SDS011;2713;42.680;23.310;2024-03-17T11:07:48;10.40;;;5.50;;
5379;SDS011;2713;42.680;23.310;2024-03-17T11:10:17;6.23;;;5.57;;
5379;SDS011;2713;42.680;23.310;2024-03-17T11:12:47;6.13;;;4.77;;
5379;SDS011;2713;42.680;23.310;2024-03-17T11:18:29;6.00;;;4.60;;
5379;SDS011;2713;42.680;23.310;2024-03-17T11:21:01;7.50;;;5.90;;
5379;SDS011;2713;42.680;23.310;2024-03-17T11:23:34;6.80;;;6.10;;
5379;SDS011;2713;42.680;23.310;2024-03-17T11:26:03;6.40;;;5.53;;
5379;SDS011;2713;42.680;23.310;2024-03-17T11:28:44;7.20;;;5.77;;
5379;SDS011;2713;42.680;23.310;2024-03-17T11:31:31;5.83;;;5.33;;
5379;SDS011;2713;42.680;23.310;2024-03-17T11:36:55;5.37;;;4.87;;
5379;SDS011;2713;42.680;23.310;2024-03-17T11:42:24;5.00;;;4.50;;
5379;SDS011;2713;42.680;23.310;2024-03-17T11:44:56;4.67;;;4.17;;
5379;SDS011;2713;42.680;23.310;2024-03-17T11:47:23;4.13;;;3.83;;
5379;SDS011;2713;42.680;23.310;2024-03-17T11:50:01;5.00;;;4.50;;
5379;SDS011;2713;42.680;23.310;2024-03-17T11:52:31;4.80;;;4.40;;
5379;SDS011;2713;42.680;23.310;2024-03-17T11:54:58;4.20;;;3.90;;
5379;SDS011;2713;42.680;23.310;2024-03-17T11:57:24;7.93;;;5.13;;
5379;SDS011;2713;42.680;23.310;2024-03-17T11:59:53;5.40;;;4.50;;
5379;SDS011;2713;42.680;23.310;2024-03-17T12:02:20;5.07;;;4.57;;
5379;SDS011;2713;42.680;23.310;2024-03-17T12:04:48;5.60;;;4.47;;
5379;SDS011;2713;42.680;23.310;2024-03-17T12:07:14;5.90;;;4.80;;
5379;SDS011;2713;42.680;23.310;2024-03-17T12:09:44;6.60;;;5.00;;
5379;SDS011;2713;42.680;23.310;2024-03-17T12:12:11;6.20;;;5.30;;
5379;SDS011;2713;42.680;23.310;2024-03-17T12:14:43;5.63;;;5.13;;
5379;SDS011;2713;42.680;23.310;2024-03-17T12:17:09;6.20;;;5.53;;
5379;SDS011;2713;42.680;23.310;2024-03-17T12:19:38;6.53;;;5.73;;
5379;SDS011;2713;42.680;23.310;2024-03-17T12:22:05;7.97;;;4.90;;
5379;SDS011;2713;42.680;23.310;2024-03-17T12:24:33;5.37;;;4.87;;
5379;SDS011;2713;42.680;23.310;2024-03-17T12:27:01;15.60;;;5.27;;
5379;SDS011;2713;42.680;23.310;2024-03-17T12:29:33;5.07;;;4.57;;
5379;SDS011;2713;42.680;23.310;2024-03-17T12:32:01;5.93;;;4.73;;
5379;SDS011;2713;42.680;23.310;2024-03-17T12:34:31;6.30;;;5.67;;
5379;SDS011;2713;42.680;23.310;2024-03-17T12:36:59;5.87;;;5.27;;
5379;SDS011;2713;42.680;23.310;2024-03-17T12:39:27;5.87;;;5.37;;
5379;SDS011;2713;42.680;23.310;2024-03-17T12:42:07;5.73;;;5.23;;
5379;SDS011;2713;42.680;23.310;2024-03-17T12:44:36;7.00;;;5.83;;
5379;SDS011;2713;42.680;23.310;2024-03-17T12:47:03;6.30;;;5.57;;
5379;SDS011;2713;42.680;23.310;2024-03-17T12:49:32;7.00;;;5.77;;
5379;SDS011;2713;42.680;23.310;2024-03-17T12:51:59;6.20;;;5.60;;
5379;SDS011;2713;42.680;23.310;2024-03-17T12:54:27;6.10;;;5.47;;
5379;SDS011;2713;42.680;23.310;2024-03-17T12:57:03;7.20;;;6.20;;
5379;SDS011;2713;42.680;23.310;2024-03-17T12:59:49;8.60;;;6.60;;
5379;SDS011;2713;42.680;23.310;2024-03-17T13:02:40;6.33;;;5.73;;
5379;SDS011;2713;42.680;23.310;2024-03-17T13:05:10;6.60;;;5.93;;
5379;SDS011;2713;42.680;23.310;2024-03-17T13:07:41;7.20;;;6.50;;
5379;SDS011;2713;42.680;23.310;2024-03-17T13:10:08;6.90;;;6.13;;
5379;SDS011;2713;42.680;23.310;2024-03-17T13:12:38;6.53;;;5.83;;
5379;SDS011;2713;42.680;23.310;2024-03-17T13:15:09;9.40;;;6.40;;
5379;SDS011;2713;42.680;23.310;2024-03-17T13:17:38;7.30;;;6.60;;
5379;SDS011;2713;42.680;23.310;2024-03-17T13:20:06;11.53;;;7.13;;
5379;SDS011;2713;42.680;23.310;2024-03-17T13:22:36;7.83;;;6.83;;
5379;SDS011;2713;42.680;23.310;2024-03-17T13:25:05;9.20;;;7.70;;
5379;SDS011;2713;42.680;23.310;2024-03-17T13:27:35;7.77;;;6.97;;
5379;SDS011;2713;42.680;23.310;2024-03-17T13:30:02;7.83;;;7.00;;
5379;SDS011;2713;42.680;23.310;2024-03-17T13:32:32;9.30;;;7.07;;
5379;SDS011;2713;42.680;23.310;2024-03-17T13:34:59;8.47;;;6.97;;
5379;SDS011;2713;42.680;23.310;2024-03-17T13:37:26;8.70;;;6.97;;
5379;SDS011;2713;42.680;23.310;2024-03-17T13:39:53;8.03;;;7.20;;
5379;SDS011;2713;42.680;23.310;2024-03-17T13:42:19;8.23;;;6.83;;
5379;SDS011;2713;42.680;23.310;2024-03-17T13:44:47;9.50;;;7.33;;
5379;SDS011;2713;42.680;23.310;2024-03-17T13:47:14;8.50;;;7.13;;
5379;SDS011;2713;42.680;23.310;2024-03-17T13:49:43;9.33;;;8.40;;
5379;SDS011;2713;42.680;23.310;2024-03-17T13:52:12;9.87;;;7.90;;
5379;SDS011;2713;42.680;23.310;2024-03-17T13:54:38;10.20;;;7.90;;
5379;SDS011;2713;42.680;23.310;2024-03-17T13:57:05;9.97;;;7.70;;
5379;SDS011;2713;42.680;23.310;2024-03-17T13:59:32;9.30;;;7.80;;
5379;SDS011;2713;42.680;23.310;2024-03-17T14:02:01;10.40;;;7.60;;
5379;SDS011;2713;42.680;23.310;2024-03-17T14:04:29;8.23;;;7.43;;
5379;SDS011;2713;42.680;23.310;2024-03-17T14:06:58;8.00;;;6.90;;
5379;SDS011;2713;42.680;23.310;2024-03-17T14:09:24;10.33;;;7.60;;
5379;SDS011;2713;42.680;23.310;2024-03-17T14:11:56;8.27;;;7.33;;
5379;SDS011;2713;42.680;23.310;2024-03-17T14:14:22;8.93;;;7.47;;
5379;SDS011;2713;42.680;23.310;2024-03-17T14:16:50;10.43;;;7.50;;
5379;SDS011;2713;42.680;23.310;2024-03-17T14:19:16;9.50;;;7.67;;
5379;SDS011;2713;42.680;23.310;2024-03-17T14:21:43;7.67;;;6.67;;
5379;SDS011;2713;42.680;23.310;2024-03-17T14:24:11;8.00;;;7.20;;
5379;SDS011;2713;42.680;23.310;2024-03-17T14:26:38;9.33;;;7.67;;
5379;SDS011;2713;42.680;23.310;2024-03-17T14:29:05;12.00;;;6.90;;
5379;SDS011;2713;42.680;23.310;2024-03-17T14:31:32;9.87;;;8.10;;
5379;SDS011;2713;42.680;23.310;2024-03-17T14:34:02;8.00;;;7.20;;
5379;SDS011;2713;42.680;23.310;2024-03-17T14:36:30;8.40;;;7.50;;
5379;SDS011;2713;42.680;23.310;2024-03-17T14:38:58;8.30;;;7.20;;
5379;SDS011;2713;42.680;23.310;2024-03-17T14:41:28;9.80;;;6.80;;
5379;SDS011;2713;42.680;23.310;2024-03-17T14:43:56;9.07;;;6.63;;
5379;SDS011;2713;42.680;23.310;2024-03-17T14:46:23;9.10;;;7.60;;
5379;SDS011;2713;42.680;23.310;2024-03-17T14:48:51;9.90;;;7.33;;
5379;SDS011;2713;42.680;23.310;2024-03-17T14:51:17;9.70;;;7.73;;
5379;SDS011;2713;42.680;23.310;2024-03-17T14:53:46;8.60;;;7.70;;
5379;SDS011;2713;42.680;23.310;2024-03-17T14:56:14;15.17;;;7.97;;
5379;SDS011;2713;42.680;23.310;2024-03-17T14:58:44;11.30;;;8.50;;
5379;SDS011;2713;42.680;23.310;2024-03-17T15:01:12;8.80;;;7.90;;